sensor_id;sensor_type;location;lat;lon;timestamp;pressure;altitude;pressure_sealevel;temperature;humidity
73981;BME280;62348;51.412;5.436;2023-11-19T00:01:26;100782.06;;;11.16;100.00
73981;BME280;62348;51.412;5.436;2023-11-19T00:03:51;100771.78;;;11.18;100.00
73981;BME280;62348;51.412;5.436;2023-11-19T00:06:16;100765.88;;;11.21;100.00
73981;BME280;62348;51.412;5.436;2023-11-19T00:08:42;100765.28;;;11.19;100.00
73981;BME280;62348;51.412;5.436;2023-11-19T00:11:09;100772.38;;;11.25;100.00
73981;BME280;62348;51.412;5.436;2023-11-19T00:13:34;100762.31;;;11.21;100.00
73981;BME280;62348;51.412;5.436;2023-11-19T00:16:00;100765.06;;;11.26;100.00
73981;BME280;62348;51.412;5.436;2023-11-19T00:18:25;100749.63;;;11.26;100.00
73981;BME280;62348;51.412;5.436;2023-11-19T00:20:50;100741.75;;;11.25;100.00
73981;BME280;62348;51.412;5.436;2023-11-19T00:23:16;100748.28;;;11.29;100.00
73981;BME280;62348;51.412;5.436;2023-11-19T00:25:41;100739.34;;;11.28;100.00
73981;BME280;62348;51.412;5.436;2023-11-19T00:28:07;100733.66;;;11.30;100.00
73981;BME280;62348;51.412;5.436;2023-11-19T00:30:32;100729.34;;;11.29;100.00
73981;BME280;62348;51.412;5.436;2023-11-19T00:32:57;100723.94;;;11.29;100.00
73981;BME280;62348;51.412;5.436;2023-11-19T00:35:23;100713.09;;;11.29;100.00
73981;BME280;62348;51.412;5.436;2023-11-19T00:37:48;100708.75;;;11.28;100.00
73981;BME280;62348;51.412;5.436;2023-11-19T00:40:15;100712.81;;;11.30;100.00
73981;BME280;62348;51.412;5.436;2023-11-19T00:42:42;100717.41;;;11.30;100.00
73981;BME280;62348;51.412;5.436;2023-11-19T00:45:08;100717.69;;;11.28;100.00
73981;BME280;62348;51.412;5.436;2023-11-19T00:47:35;100714.97;;;11.28;100.00
73981;BME280;62348;51.412;5.436;2023-11-19T00:50:01;100712.00;;;11.30;100.00
73981;BME280;62348;51.412;5.436;2023-11-19T00:52:27;100717.41;;;11.30;100.00
73981;BME280;62348;51.412;5.436;2023-11-19T00:54:52;100721.22;;;11.29;100.00
73981;BME280;62348;51.412;5.436;2023-11-19T00:57:18;100721.75;;;11.31;100.00
73981;BME280;62348;51.412;5.436;2023-11-19T00:59:44;100729.88;;;11.31;100.00
73981;BME280;62348;51.412;5.436;2023-11-19T01:02:10;100730.94;;;11.30;100.00
73981;BME280;62348;51.412;5.436;2023-11-19T01:04:36;100722.84;;;11.30;100.00
73981;BME280;62348;51.412;5.436;2023-11-19T01:07:04;100720.66;;;11.32;100.00
73981;BME280;62348;51.412;5.436;2023-11-19T01:09:33;100720.41;;;11.33;100.00
73981;BME280;62348;51.412;5.436;2023-11-19T01:12:01;100721.50;;;11.32;100.00
73981;BME280;62348;51.412;5.436;2023-11-19T01:14:27;100729.63;;;11.32;100.00
73981;BME280;62348;51.412;5.436;2023-11-19T01:16:53;100728.78;;;11.32;100.00
73981;BME280;62348;51.412;5.436;2023-11-19T01:19:22;100734.19;;;11.32;100.00
73981;BME280;62348;51.412;5.436;2023-11-19T01:21:48;100730.44;;;11.33;100.00
73981;BME280;62348;51.412;5.436;2023-11-19T01:24:14;100710.94;;;11.31;100.00
73981;BME280;62348;51.412;5.436;2023-11-19T01:26:40;100715.50;;;11.30;100.00
73981;BME280;62348;51.412;5.436;2023-11-19T01:29:16;100717.69;;;11.28;100.00
73981;BME280;62348;51.412;5.436;2023-11-19T01:31:42;100710.94;;;11.31;100.00
73981;BME280;62348;51.412;5.436;2023-11-19T01:34:08;100688.44;;;11.30;100.00
73981;BME280;62348;51.412;5.436;2023-11-19T01:36:34;100688.75;;;11.29;100.00
73981;BME280;62348;51.412;5.436;2023-11-19T01:39:00;100677.09;;;11.28;100.00
73981;BME280;62348;51.412;5.436;2023-11-19T01:41:25;100683.31;;;11.29;100.00
73981;BME280;62348;51.412;5.436;2023-11-19T01:43:51;100679.53;;;11.30;100.00
73981;BME280;62348;51.412;5.436;2023-11-19T01:46:16;100688.44;;;11.30;100.00
73981;BME280;62348;51.412;5.436;2023-11-19T01:48:44;100687.66;;;11.30;100.00
73981;BME280;62348;51.412;5.436;2023-11-19T01:51:11;100681.44;;;11.29;100.00
73981;BME280;62348;51.412;5.436;2023-11-19T01:53:38;100683.31;;;11.29;100.00
73981;BME280;62348;51.412;5.436;2023-11-19T01:56:05;100697.13;;;11.27;100.00
73981;BME280;62348;51.412;5.436;2023-11-19T01:58:35;100696.03;;;11.28;100.00
73981;BME280;62348;51.412;5.436;2023-11-19T02:01:00;100693.31;;;11.28;100.00
73981;BME280;62348;51.412;5.436;2023-11-19T02:03:33;100700.63;;;11.28;100.00
73981;BME280;62348;51.412;5.436;2023-11-19T02:06:02;100712.56;;;11.27;100.00
73981;BME280;62348;51.412;5.436;2023-11-19T02:08:29;100697.38;;;11.26;100.00
73981;BME280;62348;51.412;5.436;2023-11-19T02:10:54;100716.34;;;11.26;100.00
73981;BME280;62348;51.412;5.436;2023-11-19T02:13:23;100696.84;;;11.24;100.00
73981;BME280;62348;51.412;5.436;2023-11-19T02:15:50;100699.81;;;11.22;100.00
73981;BME280;62348;51.412;5.436;2023-11-19T02:18:24;100699.00;;;11.22;100.00
73981;BME280;62348;51.412;5.436;2023-11-19T02:20:56;100698.72;;;11.18;100.00
73981;BME280;62348;51.412;5.436;2023-11-19T02:23:22;100700.91;;;11.16;100.00
73981;BME280;62348;51.412;5.436;2023-11-19T02:26:07;100706.81;;;11.13;100.00
73981;BME280;62348;51.412;5.436;2023-11-19T02:28:36;100696.56;;;11.10;100.00
73981;BME280;62348;51.412;5.436;2023-11-19T02:31:02;100680.59;;;11.08;100.00
73981;BME280;62348;51.412;5.436;2023-11-19T02:33:30;100691.41;;;11.08;100.00
73981;BME280;62348;51.412;5.436;2023-11-19T02:35:55;100683.81;;;11.05;100.00
73981;BME280;62348;51.412;5.436;2023-11-19T02:38:21;100691.94;;;11.05;100.00
73981;BME280;62348;51.412;5.436;2023-11-19T02:40:47;100703.84;;;11.04;100.00
73981;BME280;62348;51.412;5.436;2023-11-19T02:43:13;100684.38;;;11.02;100.00
73981;BME280;62348;51.412;5.436;2023-11-19T02:45:38;100670.28;;;11.00;100.00
73981;BME280;62348;51.412;5.436;2023-11-19T02:48:04;100670.28;;;11.00;100.00
73981;BME280;62348;51.412;5.436;2023-11-19T02:50:31;100672.72;;;10.97;100.00
73981;BME280;62348;51.412;5.436;2023-11-19T02:52:57;100667.03;;;10.93;100.00
73981;BME280;62348;51.412;5.436;2023-11-19T02:55:23;100668.09;;;10.92;100.00
73981;BME280;62348;51.412;5.436;2023-11-19T02:57:49;100683.78;;;10.90;100.00
73981;BME280;62348;51.412;5.436;2023-11-19T03:00:16;100688.91;;;10.86;100.00
73981;BME280;62348;51.412;5.436;2023-11-19T03:02:42;100671.06;;;10.85;100.00
73981;BME280;62348;51.412;5.436;2023-11-19T03:05:24;100664.28;;;10.83;100.00
73981;BME280;62348;51.412;5.436;2023-11-19T03:07:50;100677.25;;;10.81;100.00
73981;BME280;62348;51.412;5.436;2023-11-19T03:10:15;100684.03;;;10.78;100.00
73981;BME280;62348;51.412;5.436;2023-11-19T03:12:41;100673.72;;;10.75;100.00
73981;BME280;62348;51.412;5.436;2023-11-19T03:15:08;100668.31;;;10.75;100.00
73981;BME280;62348;51.412;5.436;2023-11-19T03:17:39;100680.50;;;10.72;100.00
73981;BME280;62348;51.412;5.436;2023-11-19T03:20:06;100677.78;;;10.72;100.00
73981;BME280;62348;51.412;5.436;2023-11-19T03:22:35;100682.66;;;10.70;100.00
73981;BME280;62348;51.412;5.436;2023-11-19T03:25:01;100684.25;;;10.71;100.00
73981;BME280;62348;51.412;5.436;2023-11-19T03:27:27;100688.31;;;10.69;100.00
73981;BME280;62348;51.412;5.436;2023-11-19T03:29:52;100681.56;;;10.71;100.00
73981;BME280;62348;51.412;5.436;2023-11-19T03:32:17;100684.81;;;10.68;100.00
73981;BME280;62348;51.412;5.436;2023-11-19T03:34:43;100687.53;;;10.68;100.00
73981;BME280;62348;51.412;5.436;2023-11-19T03:37:08;100684.81;;;10.68;100.00
73981;BME280;62348;51.412;5.436;2023-11-19T03:39:34;100680.22;;;10.69;100.00
73981;BME280;62348;51.412;5.436;2023-11-19T03:41:59;100677.50;;;10.69;100.00
73981;BME280;62348;51.412;5.436;2023-11-19T03:44:26;100678.56;;;10.68;100.00
73981;BME280;62348;51.412;5.436;2023-11-19T03:46:52;100680.22;;;10.69;100.00
73981;BME280;62348;51.412;5.436;2023-11-19T03:49:17;100674.81;;;10.69;100.00
73981;BME280;62348;51.412;5.436;2023-11-19T03:51:43;100677.75;;;10.67;100.00
73981;BME280;62348;51.412;5.436;2023-11-19T03:54:08;100686.13;;;10.66;100.00
73981;BME280;62348;51.412;5.436;2023-11-19T03:56:33;100690.75;;;10.65;100.00
73981;BME280;62348;51.412;5.436;2023-11-19T03:58:59;100687.22;;;10.65;100.00
73981;BME280;62348;51.412;5.436;2023-11-19T04:01:25;100697.25;;;10.64;100.00
73981;BME280;62348;51.412;5.436;2023-11-19T04:03:50;100696.66;;;10.62;100.00
73981;BME280;62348;51.412;5.436;2023-11-19T04:06:15;100699.38;;;10.62;100.00
73981;BME280;62348;51.412;5.436;2023-11-19T04:08:41;100697.50;;;10.63;100.00
73981;BME280;62348;51.412;5.436;2023-11-19T04:11:06;100701.00;;;10.63;100.00
73981;BME280;62348;51.412;5.436;2023-11-19T04:13:34;100683.16;;;10.62;100.00
73981;BME280;62348;51.412;5.436;2023-11-19T04:15:59;100691.25;;;10.62;100.00
73981;BME280;62348;51.412;5.436;2023-11-19T04:18:25;100693.97;;;10.62;100.00
73981;BME280;62348;51.412;5.436;2023-11-19T04:20:50;100704.78;;;10.62;100.00
73981;BME280;62348;51.412;5.436;2023-11-19T04:23:16;100691.25;;;10.62;100.00
73981;BME280;62348;51.412;5.436;2023-11-19T04:25:41;100705.63;;;10.63;100.00
73981;BME280;62348;51.412;5.436;2023-11-19T04:28:07;100711.81;;;10.63;100.00
73981;BME280;62348;51.412;5.436;2023-11-19T04:30:33;100712.09;;;10.62;100.00
73981;BME280;62348;51.412;5.436;2023-11-19T04:32:58;100718.28;;;10.62;100.00
73981;BME280;62348;51.412;5.436;2023-11-19T04:35:24;100726.16;;;10.64;100.00
73981;BME280;62348;51.412;5.436;2023-11-19T04:37:51;100733.47;;;10.63;100.00
73981;BME280;62348;51.412;5.436;2023-11-19T04:40:16;100717.50;;;10.62;100.00
73981;BME280;62348;51.412;5.436;2023-11-19T04:42:43;100696.97;;;10.61;100.00
73981;BME280;62348;51.412;5.436;2023-11-19T04:45:09;100698.81;;;10.60;100.00
73981;BME280;62348;51.412;5.436;2023-11-19T04:47:36;100699.66;;;10.61;100.00
73981;BME280;62348;51.412;5.436;2023-11-19T04:50:02;100690.72;;;10.60;100.00
73981;BME280;62348;51.412;5.436;2023-11-19T04:52:28;100699.91;;;10.59;100.00
73981;BME280;62348;51.412;5.436;2023-11-19T04:54:53;100707.47;;;10.62;100.00
73981;BME280;62348;51.412;5.436;2023-11-19T04:57:18;100705.31;;;10.59;100.00
73981;BME280;62348;51.412;5.436;2023-11-19T04:59:44;100711.00;;;10.58;100.00
73981;BME280;62348;51.412;5.436;2023-11-19T05:02:09;100713.69;;;10.58;100.00
73981;BME280;62348;51.412;5.436;2023-11-19T05:04:35;100711.50;;;10.54;100.00
73981;BME280;62348;51.412;5.436;2023-11-19T05:07:00;100707.75;;;10.55;100.00
73981;BME280;62348;51.412;5.436;2023-11-19T05:09:26;100723.97;;;10.55;100.00
73981;BME280;62348;51.412;5.436;2023-11-19T05:11:51;100729.13;;;10.57;100.00
73981;BME280;62348;51.412;5.436;2023-11-19T05:14:17;100726.13;;;10.53;100.00
73981;BME280;62348;51.412;5.436;2023-11-19T05:16:45;100722.88;;;10.51;100.00
73981;BME280;62348;51.412;5.436;2023-11-19T05:19:10;100725.56;;;10.51;100.00
73981;BME280;62348;51.412;5.436;2023-11-19T05:21:35;100721.22;;;10.50;100.00
73981;BME280;62348;51.412;5.436;2023-11-19T05:24:02;100723.13;;;10.50;100.00
73981;BME280;62348;51.412;5.436;2023-11-19T05:26:30;100724.19;;;10.49;100.00
73981;BME280;62348;51.412;5.436;2023-11-19T05:28:55;100719.06;;;10.47;100.00
73981;BME280;62348;51.412;5.436;2023-11-19T05:31:21;100730.94;;;10.46;100.00
73981;BME280;62348;51.412;5.436;2023-11-19T05:33:46;100738.50;;;10.44;100.00
73981;BME280;62348;51.412;5.436;2023-11-19T05:36:12;100735.81;;;10.44;100.00
73981;BME280;62348;51.412;5.436;2023-11-19T05:38:38;100730.66;;;10.43;100.00
73981;BME280;62348;51.412;5.436;2023-11-19T05:41:04;100722.00;;;10.41;100.00
73981;BME280;62348;51.412;5.436;2023-11-19T05:43:30;100732.00;;;10.40;100.00
73981;BME280;62348;51.412;5.436;2023-11-19T05:45:56;100720.09;;;10.41;100.00
73981;BME280;62348;51.412;5.436;2023-11-19T05:48:22;100732.50;;;10.37;100.00
73981;BME280;62348;51.412;5.436;2023-11-19T05:50:48;100728.44;;;10.34;100.00
73981;BME280;62348;51.412;5.436;2023-11-19T05:53:15;100734.66;;;10.35;100.00
73981;BME280;62348;51.412;5.436;2023-11-19T05:55:40;100737.38;;;10.35;100.00
73981;BME280;62348;51.412;5.436;2023-11-19T05:58:15;100735.22;;;10.37;100.00
73981;BME280;62348;51.412;5.436;2023-11-19T06:00:41;100732.22;;;10.33;100.00
73981;BME280;62348;51.412;5.436;2023-11-19T06:03:09;100730.59;;;10.32;100.00
73981;BME280;62348;51.412;5.436;2023-11-19T06:05:34;100738.97;;;10.31;100.00
73981;BME280;62348;51.412;5.436;2023-11-19T06:08:00;100743.00;;;10.28;100.00
73981;BME280;62348;51.412;5.436;2023-11-19T06:10:25;100739.44;;;10.28;100.00
73981;BME280;62348;51.412;5.436;2023-11-19T06:12:59;100747.25;;;10.24;100.00
73981;BME280;62348;51.412;5.436;2023-11-19T06:15:26;100751.06;;;10.23;100.00
73981;BME280;62348;51.412;5.436;2023-11-19T06:17:52;100743.19;;;10.22;100.00
73981;BME280;62348;51.412;5.436;2023-11-19T06:20:18;100743.47;;;10.20;100.00
73981;BME280;62348;51.412;5.436;2023-11-19T06:22:45;100729.41;;;10.18;100.00
73981;BME280;62348;51.412;5.436;2023-11-19T06:25:11;100736.94;;;10.16;100.00
73981;BME280;62348;51.412;5.436;2023-11-19T06:27:36;100741.28;;;10.17;100.00
73981;BME280;62348;51.412;5.436;2023-11-19T06:30:02;100751.81;;;10.13;100.00
73981;BME280;62348;51.412;5.436;2023-11-19T06:32:28;100744.75;;;10.12;100.00
73981;BME280;62348;51.412;5.436;2023-11-19T06:34:54;100752.56;;;10.09;100.00
73981;BME280;62348;51.412;5.436;2023-11-19T06:37:19;100749.06;;;10.08;100.00
73981;BME280;62348;51.412;5.436;2023-11-19T06:39:45;100746.06;;;10.05;100.00
73981;BME280;62348;51.412;5.436;2023-11-19T06:42:10;100739.84;;;10.04;100.00
73981;BME280;62348;51.412;5.436;2023-11-19T06:44:36;100747.16;;;10.04;100.00
73981;BME280;62348;51.412;5.436;2023-11-19T06:47:01;100747.66;;;10.01;100.00
73981;BME280;62348;51.412;5.436;2023-11-19T06:49:27;100745.22;;;9.99;100.00
73981;BME280;62348;51.412;5.436;2023-11-19T06:51:52;100744.41;;;9.99;100.00
73981;BME280;62348;51.412;5.436;2023-11-19T06:54:17;100745.75;;;9.96;100.00
73981;BME280;62348;51.412;5.436;2023-11-19T06:56:43;100743.28;;;9.94;100.00
73981;BME280;62348;51.412;5.436;2023-11-19T06:59:08;100746.25;;;9.93;100.00
73981;BME280;62348;51.412;5.436;2023-11-19T07:01:35;100756.25;;;9.92;100.00
73981;BME280;62348;51.412;5.436;2023-11-19T07:04:01;100748.41;;;9.91;100.00
73981;BME280;62348;51.412;5.436;2023-11-19T07:06:33;100761.34;;;9.89;100.00
73981;BME280;62348;51.412;5.436;2023-11-19T07:08:58;100764.84;;;9.89;100.00
73981;BME280;62348;51.412;5.436;2023-11-19T07:11:24;100771.31;;;9.88;100.00
73981;BME280;62348;51.412;5.436;2023-11-19T07:13:49;100775.91;;;9.88;100.00
73981;BME280;62348;51.412;5.436;2023-11-19T07:16:15;100773.22;;;9.88;100.00
73981;BME280;62348;51.412;5.436;2023-11-19T07:18:40;100775.09;;;9.87;100.00
73981;BME280;62348;51.412;5.436;2023-11-19T07:21:09;100775.09;;;9.87;100.00
73981;BME280;62348;51.412;5.436;2023-11-19T07:23:35;100785.66;;;9.89;100.00
73981;BME280;62348;51.412;5.436;2023-11-19T07:26:01;100785.91;;;9.87;100.00
73981;BME280;62348;51.412;5.436;2023-11-19T07:28:26;100784.81;;;9.88;100.00
73981;BME280;62348;51.412;5.436;2023-11-19T07:30:54;100792.66;;;9.90;100.00
73981;BME280;62348;51.412;5.436;2023-11-19T07:33:21;100792.91;;;9.88;100.00
73981;BME280;62348;51.412;5.436;2023-11-19T07:35:46;100800.53;;;9.91;100.00
73981;BME280;62348;51.412;5.436;2023-11-19T07:38:12;100799.72;;;9.91;100.00
73981;BME280;62348;51.412;5.436;2023-11-19T07:40:37;100801.31;;;9.92;100.00
73981;BME280;62348;51.412;5.436;2023-11-19T07:43:03;100805.41;;;9.94;100.00
73981;BME280;62348;51.412;5.436;2023-11-19T07:45:28;100800.81;;;9.95;100.00
73981;BME280;62348;51.412;5.436;2023-11-19T07:47:54;100803.28;;;9.96;100.00
73981;BME280;62348;51.412;5.436;2023-11-19T07:50:19;100807.59;;;9.97;100.00
73981;BME280;62348;51.412;5.436;2023-11-19T07:52:45;100796.78;;;9.97;100.00
73981;BME280;62348;51.412;5.436;2023-11-19T07:55:11;100794.91;;;9.98;100.00
73981;BME280;62348;51.412;5.436;2023-11-19T07:57:37;100796.53;;;9.99;100.00
73981;BME280;62348;51.412;5.436;2023-11-19T08:00:03;100798.44;;;9.99;100.00
73981;BME280;62348;51.412;5.436;2023-11-19T08:02:29;100790.31;;;9.99;100.00
73981;BME280;62348;51.412;5.436;2023-11-19T08:04:54;100797.09;;;10.01;100.00
73981;BME280;62348;51.412;5.436;2023-11-19T08:07:21;100803.31;;;10.02;100.00
73981;BME280;62348;51.412;5.436;2023-11-19T08:09:46;100804.13;;;10.02;100.00
73981;BME280;62348;51.412;5.436;2023-11-19T08:12:12;100806.84;;;10.02;100.00
73981;BME280;62348;51.412;5.436;2023-11-19T08:14:39;100814.41;;;10.05;100.00
73981;BME280;62348;51.412;5.436;2023-11-19T08:17:05;100811.44;;;10.07;100.00
73981;BME280;62348;51.412;5.436;2023-11-19T08:19:30;100815.25;;;10.11;100.00
73981;BME280;62348;51.412;5.436;2023-11-19T08:21:56;100819.59;;;10.12;100.00
73981;BME280;62348;51.412;5.436;2023-11-19T08:24:21;100813.94;;;10.13;100.00
73981;BME280;62348;51.412;5.436;2023-11-19T08:26:47;100814.75;;;10.14;100.00
73981;BME280;62348;51.412;5.436;2023-11-19T08:29:13;100808.84;;;10.17;100.00
73981;BME280;62348;51.412;5.436;2023-11-19T08:31:39;100810.72;;;10.16;100.00
73981;BME280;62348;51.412;5.436;2023-11-19T08:34:05;100812.34;;;10.18;100.00
73981;BME280;62348;51.412;5.436;2023-11-19T08:36:34;100821.81;;;10.20;100.00
73981;BME280;62348;51.412;5.436;2023-11-19T08:38:59;100816.16;;;10.22;100.00
73981;BME280;62348;51.412;5.436;2023-11-19T08:41:24;100815.91;;;10.23;100.00
73981;BME280;62348;51.412;5.436;2023-11-19T08:43:50;100804.00;;;10.24;100.00
73981;BME280;62348;51.412;5.436;2023-11-19T08:46:16;100816.19;;;10.27;100.00
73981;BME280;62348;51.412;5.436;2023-11-19T08:48:42;100818.91;;;10.27;100.00
73981;BME280;62348;51.412;5.436;2023-11-19T08:51:08;100814.88;;;10.29;100.00
73981;BME280;62348;51.412;5.436;2023-11-19T08:53:33;100814.38;;;10.32;100.00
73981;BME280;62348;51.412;5.436;2023-11-19T08:55:59;100815.50;;;10.37;100.00
73981;BME280;62348;51.412;5.436;2023-11-19T08:58:25;100812.53;;;10.38;100.00
73981;BME280;62348;51.412;5.436;2023-11-19T09:00:51;100824.97;;;10.39;100.00
73981;BME280;62348;51.412;5.436;2023-11-19T09:03:16;100817.94;;;10.43;100.00
73981;BME280;62348;51.412;5.436;2023-11-19T09:05:41;100821.78;;;10.47;100.00
73981;BME280;62348;51.412;5.436;2023-11-19T09:08:07;100819.09;;;10.52;100.00
73981;BME280;62348;51.412;5.436;2023-11-19T09:10:33;100818.84;;;10.54;100.00
73981;BME280;62348;51.412;5.436;2023-11-19T09:12:58;100820.50;;;10.60;100.00
73981;BME280;62348;51.412;5.436;2023-11-19T09:15:24;100822.44;;;10.65;100.00
73981;BME280;62348;51.412;5.436;2023-11-19T09:17:50;100824.88;;;10.66;100.00
73981;BME280;62348;51.412;5.436;2023-11-19T09:20:16;100818.94;;;10.69;100.00
73981;BME280;62348;51.412;5.436;2023-11-19T09:22:42;100817.59;;;10.72;100.00
73981;BME280;62348;51.412;5.436;2023-11-19T09:25:07;100827.06;;;10.74;100.00
73981;BME280;62348;51.412;5.436;2023-11-19T09:27:33;100812.47;;;10.75;100.00
73981;BME280;62348;51.412;5.436;2023-11-19T09:29:58;100807.63;;;10.78;100.00
73981;BME280;62348;51.412;5.436;2023-11-19T09:32:25;100815.19;;;10.81;100.00
73981;BME280;62348;51.412;5.436;2023-11-19T09:34:50;100813.03;;;10.83;100.00
73981;BME280;62348;51.412;5.436;2023-11-19T09:37:16;100819.84;;;10.85;100.00
73981;BME280;62348;51.412;5.436;2023-11-19T09:39:42;100820.38;;;10.87;100.00
73981;BME280;62348;51.412;5.436;2023-11-19T09:42:12;100808.47;;;10.88;100.00
73981;BME280;62348;51.412;5.436;2023-11-19T09:44:38;100807.66;;;10.88;100.00
73981;BME280;62348;51.412;5.436;2023-11-19T09:47:06;100810.41;;;10.93;100.00
73981;BME280;62348;51.412;5.436;2023-11-19T09:49:32;100806.34;;;10.96;100.00
73981;BME280;62348;51.412;5.436;2023-11-19T09:51:58;100813.94;;;10.99;100.00
73981;BME280;62348;51.412;5.436;2023-11-19T09:54:24;100809.38;;;11.04;100.00
73981;BME280;62348;51.412;5.436;2023-11-19T09:56:49;100813.69;;;11.05;100.00
73981;BME280;62348;51.412;5.436;2023-11-19T09:59:15;100812.91;;;11.10;100.00
73981;BME280;62348;51.412;5.436;2023-11-19T10:01:42;100814.81;;;11.14;100.00
73981;BME280;62348;51.412;5.436;2023-11-19T10:04:09;100808.06;;;11.22;100.00
73981;BME280;62348;51.412;5.436;2023-11-19T10:06:35;100811.34;;;11.29;100.00
73981;BME280;62348;51.412;5.436;2023-11-19T10:09:00;100818.41;;;11.36;100.00
73981;BME280;62348;51.412;5.436;2023-11-19T10:11:26;100800.25;;;11.36;100.00
73981;BME280;62348;51.412;5.436;2023-11-19T10:13:53;100801.91;;;11.37;100.00
73981;BME280;62348;51.412;5.436;2023-11-19T10:16:19;100799.47;;;11.41;100.00
73981;BME280;62348;51.412;5.436;2023-11-19T10:18:45;100798.66;;;11.45;100.00
73981;BME280;62348;51.412;5.436;2023-11-19T10:21:14;100807.31;;;11.47;100.00
73981;BME280;62348;51.412;5.436;2023-11-19T10:23:49;100820.88;;;11.52;100.00
73981;BME280;62348;51.412;5.436;2023-11-19T10:26:19;100823.06;;;11.56;100.00
73981;BME280;62348;51.412;5.436;2023-11-19T10:28:48;100808.97;;;11.53;100.00
73981;BME280;62348;51.412;5.436;2023-11-19T10:31:15;100814.66;;;11.57;100.00
73981;BME280;62348;51.412;5.436;2023-11-19T10:33:41;100803.56;;;11.59;100.00
73981;BME280;62348;51.412;5.436;2023-11-19T10:36:07;100805.19;;;11.60;100.00
73981;BME280;62348;51.412;5.436;2023-11-19T10:38:33;100801.38;;;11.61;100.00
73981;BME280;62348;51.412;5.436;2023-11-19T10:40:59;100792.72;;;11.64;100.00
73981;BME280;62348;51.412;5.436;2023-11-19T10:43:24;100800.06;;;11.63;100.00
73981;BME280;62348;51.412;5.436;2023-11-19T10:45:51;100806.53;;;11.62;100.00
73981;BME280;62348;51.412;5.436;2023-11-19T10:48:16;100802.75;;;11.63;100.00
73981;BME280;62348;51.412;5.436;2023-11-19T10:50:44;100796.78;;;11.66;100.00
73981;BME280;62348;51.412;5.436;2023-11-19T10:53:11;100803.31;;;11.70;100.00
73981;BME280;62348;51.412;5.436;2023-11-19T10:55:41;100812.00;;;11.72;100.00
73981;BME280;62348;51.412;5.436;2023-11-19T10:58:10;100821.47;;;11.75;100.00
73981;BME280;62348;51.412;5.436;2023-11-19T11:00:51;100809.56;;;11.76;100.00
73981;BME280;62348;51.412;5.436;2023-11-19T11:03:22;100808.19;;;11.79;100.00
73981;BME280;62348;51.412;5.436;2023-11-19T11:05:51;100800.59;;;11.76;100.00
73981;BME280;62348;51.412;5.436;2023-11-19T11:08:18;100803.56;;;11.74;100.00
73981;BME280;62348;51.412;5.436;2023-11-19T11:10:56;100799.50;;;11.71;100.00
73981;BME280;62348;51.412;5.436;2023-11-19T11:13:26;100797.31;;;11.68;100.00
73981;BME280;62348;51.412;5.436;2023-11-19T11:15:55;100796.78;;;11.66;100.00
73981;BME280;62348;51.412;5.436;2023-11-19T11:18:23;100789.75;;;11.65;100.00
73981;BME280;62348;51.412;5.436;2023-11-19T11:20:52;100779.47;;;11.62;100.00
73981;BME280;62348;51.412;5.436;2023-11-19T11:29:26;100792.44;;;11.55;100.00
73981;BME280;62348;51.412;5.436;2023-11-19T11:37:34;100796.22;;;11.39;100.00
73981;BME280;62348;51.412;5.436;2023-11-19T11:40:02;100772.63;;;11.34;100.00
73981;BME280;62348;51.412;5.436;2023-11-19T11:42:36;100775.34;;;11.29;100.00
73981;BME280;62348;51.412;5.436;2023-11-19T11:55:51;100760.16;;;11.12;100.00
73981;BME280;62348;51.412;5.436;2023-11-19T11:58:18;100768.78;;;11.09;100.00
73981;BME280;62348;51.412;5.436;2023-11-19T12:00:43;100757.16;;;11.09;100.00
73981;BME280;62348;51.412;5.436;2023-11-19T12:03:11;100760.41;;;11.11;100.00
73981;BME280;62348;51.412;5.436;2023-11-19T12:05:44;100765.28;;;11.14;100.00
73981;BME280;62348;51.412;5.436;2023-11-19T12:08:11;100751.50;;;11.16;100.00
73981;BME280;62348;51.412;5.436;2023-11-19T12:10:47;100759.06;;;11.19;100.00
73981;BME280;62348;51.412;5.436;2023-11-19T12:13:14;100752.06;;;11.18;100.00
73981;BME280;62348;51.412;5.436;2023-11-19T12:20:50;100730.69;;;11.21;100.00
73981;BME280;62348;51.412;5.436;2023-11-19T12:23:15;100736.34;;;11.25;100.00
73981;BME280;62348;51.412;5.436;2023-11-19T12:25:41;100736.09;;;11.26;100.00
73981;BME280;62348;51.412;5.436;2023-11-19T12:28:11;100722.81;;;11.25;100.00
73981;BME280;62348;51.412;5.436;2023-11-19T12:30:37;100734.72;;;11.24;100.00
73981;BME280;62348;51.412;5.436;2023-11-19T12:33:08;100737.19;;;11.25;100.00
73981;BME280;62348;51.412;5.436;2023-11-19T12:35:41;100733.94;;;11.23;100.00
73981;BME280;62348;51.412;5.436;2023-11-19T12:38:08;100737.97;;;11.26;100.00
73981;BME280;62348;51.412;5.436;2023-11-19T12:40:33;100746.66;;;11.28;100.00
73981;BME280;62348;51.412;5.436;2023-11-19T12:42:59;100743.13;;;11.27;100.00
73981;BME280;62348;51.412;5.436;2023-11-19T12:45:36;100751.00;;;11.29;100.00
73981;BME280;62348;51.412;5.436;2023-11-19T12:48:07;100752.59;;;11.30;100.00
73981;BME280;62348;51.412;5.436;2023-11-19T12:50:53;100741.50;;;11.31;100.00
73981;BME280;62348;51.412;5.436;2023-11-19T12:53:20;100741.00;;;11.35;100.00
73981;BME280;62348;51.412;5.436;2023-11-19T12:55:46;100741.78;;;11.35;100.00
73981;BME280;62348;51.412;5.436;2023-11-19T12:58:34;100740.44;;;11.38;100.00
73981;BME280;62348;51.412;5.436;2023-11-19T13:01:02;100749.66;;;11.37;100.00
73981;BME280;62348;51.412;5.436;2023-11-19T13:03:32;100748.56;;;11.38;100.00
73981;BME280;62348;51.412;5.436;2023-11-19T13:08:35;100753.69;;;11.34;100.00